createdAt,value
2017-08-25T00:01:56.951Z,46.30
2017-08-25T00:04:25.206Z,46.50
2017-08-25T00:06:53.414Z,46.20
2017-08-25T00:09:21.548Z,46.20
2017-08-25T00:11:50.791Z,45.10
2017-08-25T00:14:19.138Z,44.80
2017-08-25T00:16:47.348Z,44.70
2017-08-25T00:19:15.517Z,44.20
2017-08-25T00:21:43.698Z,45.00
2017-08-25T00:24:12.037Z,44.70
2017-08-25T00:26:40.195Z,44.10
2017-08-25T00:29:08.358Z,44.40
2017-08-25T00:31:36.530Z,44.90
2017-08-25T00:34:04.862Z,44.40
2017-08-25T00:36:33.054Z,45.00
2017-08-25T00:39:01.316Z,44.30
2017-08-25T00:41:30.037Z,44.40
2017-08-25T00:43:58.230Z,44.20
2017-08-25T00:46:26.405Z,44.40
2017-08-25T00:48:54.627Z,44.70
2017-08-25T00:51:22.768Z,44.10
2017-08-25T00:53:50.998Z,44.40
2017-08-25T00:56:19.177Z,43.90
2017-08-25T00:58:47.354Z,44.00
2017-08-25T01:01:15.555Z,44.00
2017-08-25T01:03:43.817Z,43.70
2017-08-25T01:06:12.105Z,44.30
2017-08-25T01:08:40.358Z,44.10
2017-08-25T01:11:08.577Z,45.00
2017-08-25T01:13:36.782Z,46.40
2017-08-25T01:16:04.973Z,47.90
2017-08-25T01:18:33.185Z,47.70
2017-08-25T01:21:01.391Z,47.70
2017-08-25T01:23:29.602Z,48.10
2017-08-25T01:25:57.942Z,48.50
2017-08-25T01:28:26.117Z,48.40
2017-08-25T01:30:54.365Z,48.40
2017-08-25T01:33:22.518Z,48.40
2017-08-25T01:35:50.713Z,48.70
2017-08-25T01:38:18.914Z,48.40
2017-08-25T01:40:47.089Z,48.80
2017-08-25T01:43:15.265Z,48.80
2017-08-25T01:45:43.475Z,49.40
2017-08-25T01:48:12.207Z,49.50
2017-08-25T01:50:40.394Z,48.50
2017-08-25T01:53:08.589Z,48.50
2017-08-25T01:55:36.765Z,47.70
2017-08-25T01:58:07.991Z,47.50
2017-08-25T02:00:36.169Z,47.40
2017-08-25T02:03:04.333Z,47.90
2017-08-25T02:05:32.578Z,48.60
2017-08-25T02:08:00.839Z,49.00
2017-08-25T02:10:29.005Z,49.90
2017-08-25T02:12:57.153Z,50.10
2017-08-25T02:15:25.343Z,50.20
2017-08-25T02:17:53.503Z,50.70
2017-08-25T02:20:21.650Z,51.40
2017-08-25T02:22:50.021Z,51.60
2017-08-25T02:25:18.200Z,51.10
2017-08-25T02:27:46.352Z,50.80
2017-08-25T02:30:15.469Z,50.70
2017-08-25T02:32:43.642Z,50.00
2017-08-25T02:35:11.909Z,50.30
2017-08-25T02:37:40.093Z,49.80
2017-08-25T02:40:08.320Z,50.00
2017-08-25T02:42:36.611Z,49.70
2017-08-25T02:45:04.770Z,49.90
2017-08-25T02:47:32.951Z,49.90
2017-08-25T02:50:01.118Z,50.20
2017-08-25T02:52:29.387Z,49.80
2017-08-25T02:54:57.545Z,50.10
2017-08-25T02:57:28.346Z,50.60
2017-08-25T02:59:56.608Z,50.70
2017-08-25T03:02:24.792Z,50.40
2017-08-25T03:04:52.965Z,50.00
2017-08-25T03:07:21.164Z,50.10
2017-08-25T03:09:49.315Z,50.40
2017-08-25T03:12:17.486Z,49.40
2017-08-25T03:14:45.652Z,50.00
2017-08-25T03:17:13.827Z,50.00
2017-08-25T03:19:41.980Z,49.90
2017-08-25T03:22:10.104Z,50.30
2017-08-25T03:24:38.254Z,50.10
2017-08-25T03:27:06.446Z,50.00
2017-08-25T03:29:34.668Z,49.60
2017-08-25T03:32:02.897Z,49.60
2017-08-25T03:34:31.120Z,49.30
2017-08-25T03:36:59.275Z,49.50
2017-08-25T03:39:27.426Z,50.20
2017-08-25T03:41:55.613Z,49.70
2017-08-25T03:44:23.747Z,50.00
2017-08-25T03:46:51.917Z,50.50
2017-08-25T03:49:20.082Z,50.40
2017-08-25T03:51:48.452Z,50.40
2017-08-25T03:54:16.891Z,51.00
2017-08-25T03:56:45.062Z,51.50
2017-08-25T03:59:13.211Z,52.40
2017-08-25T04:01:41.424Z,51.60
2017-08-25T04:04:09.744Z,51.70
2017-08-25T04:06:38.062Z,51.80
2017-08-25T04:09:06.265Z,52.20
2017-08-25T04:11:34.714Z,52.50
2017-08-25T04:14:02.995Z,52.50
2017-08-25T04:16:32.556Z,52.10
2017-08-25T04:19:00.846Z,52.30
2017-08-25T04:21:29.870Z,52.60
2017-08-25T04:23:58.238Z,52.40
2017-08-25T04:26:26.922Z,52.90
2017-08-25T04:28:55.196Z,54.20
2017-08-25T04:31:23.437Z,53.40
2017-08-25T04:33:51.733Z,54.50
2017-08-25T04:36:19.984Z,55.60
2017-08-25T04:38:48.182Z,55.70
2017-08-25T04:41:16.345Z,56.10
2017-08-25T04:43:44.567Z,56.70
2017-08-25T04:46:12.762Z,56.70
2017-08-25T04:48:41.189Z,57.30
2017-08-25T04:51:09.426Z,57.50
2017-08-25T04:53:37.671Z,56.70
2017-08-25T04:56:05.876Z,56.90
2017-08-25T04:58:34.111Z,56.50
2017-08-25T05:01:02.441Z,56.70
2017-08-25T05:03:30.791Z,56.60
2017-08-25T05:05:58.999Z,56.50
2017-08-25T05:08:27.286Z,56.70
2017-08-25T05:10:55.445Z,56.90
2017-08-25T05:13:23.670Z,57.30
2017-08-25T05:15:51.961Z,57.70
2017-08-25T05:18:21.050Z,57.70
2017-08-25T05:20:49.212Z,57.70
2017-08-25T05:23:17.415Z,57.00
2017-08-25T05:25:45.589Z,57.00
2017-08-25T05:28:13.806Z,57.00
2017-08-25T05:30:42.115Z,56.60
2017-08-25T05:33:10.304Z,56.30
2017-08-25T05:35:38.465Z,55.80
2017-08-25T05:38:06.666Z,55.60
2017-08-25T05:40:34.858Z,55.10
2017-08-25T05:43:03.119Z,54.60
2017-08-25T05:45:31.311Z,54.00
2017-08-25T05:48:00.679Z,53.50
2017-08-25T05:50:28.871Z,53.30
2017-08-25T05:52:57.071Z,53.30
2017-08-25T05:55:25.298Z,52.90
2017-08-25T05:57:53.615Z,53.20
2017-08-25T06:00:22.000Z,53.50
2017-08-25T06:02:50.149Z,53.20
2017-08-25T06:05:18.373Z,52.70
2017-08-25T06:07:46.557Z,47.50
2017-08-25T06:10:15.032Z,44.60
2017-08-25T06:12:43.322Z,42.50
2017-08-25T06:18:07.230Z,39.80
2017-08-25T06:20:36.444Z,43.20
2017-08-25T06:23:04.731Z,44.10
2017-08-25T06:25:34.132Z,46.20
2017-08-25T06:28:02.443Z,47.20
2017-08-25T06:30:30.690Z,47.30
2017-08-25T06:32:59.135Z,47.40
2017-08-25T06:35:27.358Z,47.50
2017-08-25T06:37:56.493Z,47.50
2017-08-25T06:40:24.695Z,47.50
2017-08-25T06:42:53.003Z,47.50
2017-08-25T06:45:21.218Z,47.50
2017-08-25T06:47:49.464Z,48.20
2017-08-25T06:50:17.812Z,47.90
2017-08-25T06:52:46.136Z,47.60
2017-08-25T06:55:15.065Z,47.50
2017-08-25T06:57:43.475Z,47.50
2017-08-25T07:00:11.824Z,47.70
2017-08-25T07:02:40.240Z,48.40
2017-08-25T07:05:09.421Z,49.30
2017-08-25T07:07:37.724Z,48.80
2017-08-25T07:10:06.029Z,48.60
2017-08-25T07:12:34.422Z,48.40
2017-08-25T07:15:02.661Z,47.60
2017-08-25T07:17:31.079Z,47.60
2017-08-25T07:19:59.294Z,47.70
2017-08-25T07:22:28.715Z,46.60
2017-08-25T07:24:57.036Z,46.80
2017-08-25T07:27:35.388Z,46.50
2017-08-25T07:30:03.671Z,46.00
2017-08-25T07:32:31.909Z,46.30
2017-08-25T07:35:00.227Z,45.40
2017-08-25T07:37:30.472Z,43.90
2017-08-25T07:39:58.873Z,44.10
2017-08-25T07:42:31.524Z,44.10
2017-08-25T07:44:59.952Z,42.80
2017-08-25T07:47:28.316Z,43.10
2017-08-25T07:49:56.683Z,43.20
2017-08-25T07:52:24.966Z,43.60
2017-08-25T07:54:53.449Z,43.60
2017-08-25T07:57:22.778Z,43.00
2017-08-25T07:59:51.078Z,42.50
2017-08-25T08:02:19.359Z,42.30
2017-08-25T08:04:48.779Z,41.60
2017-08-25T08:07:18.012Z,41.60
2017-08-25T08:09:46.494Z,41.50
2017-08-25T08:12:14.826Z,41.70
2017-08-25T08:14:43.053Z,41.50
2017-08-25T08:17:11.406Z,41.00
2017-08-25T08:19:39.707Z,40.50
2017-08-25T08:22:08.007Z,40.50
2017-08-25T08:24:36.218Z,40.50
2017-08-25T08:27:04.598Z,40.60
2017-08-25T08:29:33.034Z,40.40
2017-08-25T08:32:02.171Z,40.60
2017-08-25T08:34:30.861Z,40.70
2017-08-25T08:36:59.652Z,38.30
2017-08-25T08:39:27.939Z,39.20
2017-08-25T08:42:06.173Z,38.80
2017-08-25T08:44:34.438Z,38.80
2017-08-25T08:47:02.965Z,38.20
2017-08-25T08:49:31.325Z,37.70
2017-08-25T08:51:59.492Z,37.80
2017-08-25T08:54:27.653Z,38.10
2017-08-25T08:56:55.782Z,38.00
2017-08-25T08:59:23.865Z,37.70
2017-08-25T09:01:51.965Z,37.20
2017-08-25T09:04:20.057Z,37.20
2017-08-25T09:06:48.254Z,37.50
2017-08-25T09:09:16.360Z,37.70
2017-08-25T09:11:44.465Z,38.40
2017-08-25T09:14:12.631Z,37.50
2017-08-25T09:16:40.776Z,36.90
2017-08-25T09:19:08.960Z,36.40
2017-08-25T09:21:37.040Z,35.90
2017-08-25T09:24:05.822Z,35.70
2017-08-25T09:26:34.716Z,35.50
2017-08-25T09:29:02.813Z,35.80
2017-08-25T09:31:30.947Z,36.10
2017-08-25T09:33:59.056Z,35.30
2017-08-25T09:36:27.209Z,35.40
2017-08-25T09:38:56.197Z,35.50
2017-08-25T09:41:24.411Z,35.50
2017-08-25T09:43:52.603Z,35.20
2017-08-25T09:46:20.724Z,35.00
2017-08-25T09:48:48.880Z,34.80
2017-08-25T09:51:16.986Z,34.60
2017-08-25T09:53:45.068Z,34.70
2017-08-25T09:56:13.161Z,35.00
2017-08-25T09:58:41.276Z,35.30
2017-08-25T10:01:09.365Z,35.40
2017-08-25T10:03:37.457Z,34.70
2017-08-25T10:06:05.540Z,35.20
2017-08-25T10:08:33.607Z,34.90
2017-08-25T10:11:01.744Z,34.90
2017-08-25T10:13:30.015Z,34.40
2017-08-25T10:15:58.109Z,34.60
2017-08-25T10:21:25.667Z,33.50
2017-08-25T10:23:53.773Z,33.50
2017-08-25T10:26:21.877Z,32.80
2017-08-25T10:28:49.959Z,32.10
2017-08-25T10:31:18.059Z,31.70
2017-08-25T10:33:47.948Z,32.00
2017-08-25T10:36:34.393Z,31.50
2017-08-25T10:39:20.165Z,30.70
2017-08-25T10:42:06.071Z,30.00
2017-08-25T10:44:47.993Z,30.30
2017-08-25T10:47:16.145Z,30.00
2017-08-25T10:49:44.275Z,30.10
2017-08-25T10:52:12.453Z,30.20
2017-08-25T10:54:40.627Z,30.00
2017-08-25T10:57:08.787Z,30.00
2017-08-25T10:59:39.173Z,30.00
2017-08-25T11:02:07.400Z,29.60
2017-08-25T11:04:35.599Z,29.60
2017-08-25T11:07:03.823Z,30.00
2017-08-25T11:09:31.939Z,29.50
2017-08-25T11:12:00.231Z,29.10
2017-08-25T11:14:28.496Z,29.40
2017-08-25T11:16:56.753Z,29.50
2017-08-25T11:19:24.839Z,29.60
2017-08-25T11:21:52.908Z,29.30
2017-08-25T11:24:21.014Z,29.50
2017-08-25T11:26:49.093Z,29.70
2017-08-25T11:29:17.201Z,29.60
2017-08-25T11:31:45.291Z,29.50
2017-08-25T11:34:13.914Z,29.40
2017-08-25T11:36:41.988Z,29.10
2017-08-25T11:39:10.099Z,29.40
2017-08-25T11:41:38.181Z,29.20
2017-08-25T11:44:06.277Z,29.30
2017-08-25T11:46:34.375Z,29.10
2017-08-25T11:49:02.465Z,29.10
2017-08-25T11:51:30.580Z,29.40
2017-08-25T11:53:58.661Z,29.40
2017-08-25T11:56:26.762Z,29.00
2017-08-25T11:58:54.838Z,29.00
2017-08-25T12:01:22.922Z,30.00
2017-08-25T12:03:51.018Z,29.50
2017-08-25T12:06:19.124Z,29.80
2017-08-25T12:08:47.429Z,29.50
2017-08-25T12:11:15.503Z,29.70
2017-08-25T12:13:43.572Z,29.90
2017-08-25T12:16:11.659Z,29.60
2017-08-25T12:18:40.200Z,29.60
2017-08-25T12:21:10.101Z,29.60
2017-08-25T12:23:39.134Z,29.60
2017-08-25T12:26:07.439Z,29.70
2017-08-25T12:28:37.141Z,29.70
2017-08-25T12:31:05.469Z,29.40
2017-08-25T12:33:33.783Z,29.40
2017-08-25T12:36:02.118Z,29.20
2017-08-25T12:38:30.454Z,29.30
2017-08-25T12:40:58.728Z,29.30
2017-08-25T12:43:30.129Z,29.10
2017-08-25T12:46:08.748Z,28.90
2017-08-25T12:48:36.861Z,29.40
2017-08-25T12:51:04.993Z,29.20
2017-08-25T12:53:33.124Z,29.00
2017-08-25T12:56:01.210Z,29.00
2017-08-25T12:58:29.303Z,28.60
2017-08-25T13:00:57.391Z,28.00
2017-08-25T13:03:25.483Z,27.70
2017-08-25T13:05:53.576Z,27.40
2017-08-25T13:08:21.680Z,27.40
2017-08-25T13:10:49.764Z,27.40
2017-08-25T13:13:17.850Z,27.30
2017-08-25T13:15:46.990Z,27.40
2017-08-25T13:18:15.074Z,27.50
2017-08-25T13:20:43.155Z,27.50
2017-08-25T13:23:11.265Z,27.50
2017-08-25T13:25:39.376Z,27.50
2017-08-25T13:28:07.471Z,27.50
2017-08-25T13:30:35.565Z,27.40
2017-08-25T13:33:03.648Z,27.50
2017-08-25T13:35:31.745Z,27.40
2017-08-25T13:37:59.840Z,27.40
2017-08-25T13:40:28.045Z,27.50
2017-08-25T13:42:56.130Z,27.50
2017-08-25T13:45:24.221Z,27.50
2017-08-25T13:47:52.327Z,27.50
2017-08-25T13:50:20.425Z,27.20
2017-08-25T13:52:48.544Z,27.60
2017-08-25T13:55:16.619Z,26.80
2017-08-25T13:57:44.731Z,26.70
2017-08-25T14:00:12.826Z,26.60
2017-08-25T14:02:40.944Z,26.60
2017-08-25T14:05:09.016Z,26.80
2017-08-25T14:07:37.103Z,26.70
2017-08-25T14:10:05.194Z,26.80
2017-08-25T14:12:33.304Z,27.00
2017-08-25T14:15:01.386Z,27.20
2017-08-25T14:17:29.512Z,27.00
2017-08-25T14:19:57.615Z,27.10
2017-08-25T14:22:25.717Z,26.70
2017-08-25T14:24:54.805Z,26.40
2017-08-25T14:27:22.889Z,26.00
2017-08-25T14:29:50.979Z,26.90
2017-08-25T14:32:19.073Z,26.70
2017-08-25T14:34:47.193Z,26.60
2017-08-25T14:37:15.256Z,26.50
2017-08-25T14:39:43.346Z,26.70
2017-08-25T14:42:11.421Z,26.80
2017-08-25T14:44:39.544Z,26.50
2017-08-25T14:47:07.637Z,26.70
2017-08-25T14:49:35.729Z,26.50
2017-08-25T14:52:03.807Z,26.50
2017-08-25T14:54:31.935Z,26.20
2017-08-25T14:57:00.052Z,26.50
2017-08-25T14:59:28.149Z,26.40
2017-08-25T15:01:56.260Z,26.10
2017-08-25T15:04:24.381Z,26.30
2017-08-25T15:06:52.489Z,26.40
2017-08-25T15:09:20.592Z,26.60
2017-08-25T15:11:48.745Z,26.10
2017-08-25T15:14:16.858Z,25.90
2017-08-25T15:16:44.990Z,26.30
2017-08-25T15:19:13.085Z,26.10
2017-08-25T15:21:41.192Z,26.10
2017-08-25T15:24:09.284Z,26.30
2017-08-25T15:26:37.446Z,26.40
2017-08-25T15:29:05.558Z,26.50
2017-08-25T15:31:33.653Z,26.10
2017-08-25T15:34:01.785Z,26.00
2017-08-25T15:36:29.886Z,26.10
2017-08-25T15:38:58.074Z,26.10
2017-08-25T15:41:26.177Z,26.20
2017-08-25T15:43:54.292Z,26.10
2017-08-25T15:46:22.411Z,25.90
2017-08-25T15:48:50.542Z,26.40
2017-08-25T15:51:18.647Z,26.90
2017-08-25T15:53:46.758Z,26.60
2017-08-25T15:56:14.881Z,26.60
2017-08-25T15:58:43.026Z,26.60
2017-08-25T16:01:11.142Z,26.50
2017-08-25T16:03:39.242Z,26.50
2017-08-25T16:06:07.328Z,26.40
2017-08-25T16:08:35.426Z,26.40
2017-08-25T16:11:03.517Z,26.40
2017-08-25T16:13:31.626Z,26.50
2017-08-25T16:15:59.769Z,26.90
2017-08-25T16:18:27.860Z,26.90
2017-08-25T16:20:55.953Z,26.80
2017-08-25T16:23:24.040Z,26.80
2017-08-25T16:25:52.149Z,27.20
2017-08-25T16:28:20.236Z,27.80
2017-08-25T16:30:48.351Z,27.50
2017-08-25T16:33:16.457Z,27.60
2017-08-25T16:35:44.578Z,27.70
2017-08-25T16:38:12.674Z,27.60
2017-08-25T16:40:40.807Z,27.70
2017-08-25T16:43:08.901Z,27.70
2017-08-25T16:45:37.025Z,27.60
2017-08-25T16:48:05.117Z,27.70
2017-08-25T16:50:33.192Z,27.80
2017-08-25T16:53:01.301Z,27.80
2017-08-25T16:55:29.406Z,27.60
2017-08-25T16:57:57.520Z,27.60
2017-08-25T17:00:25.616Z,27.60
2017-08-25T17:02:53.712Z,27.70
2017-08-25T17:05:21.825Z,28.10
2017-08-25T17:07:49.929Z,28.20
2017-08-25T17:10:18.030Z,28.20
2017-08-25T17:12:46.148Z,29.10
2017-08-25T17:15:14.224Z,28.50
2017-08-25T17:17:42.346Z,28.50
2017-08-25T17:20:10.461Z,28.50
2017-08-25T17:22:38.569Z,28.60
2017-08-25T17:25:06.662Z,29.10
2017-08-25T17:27:34.746Z,28.90
2017-08-25T17:30:02.842Z,28.90
2017-08-25T17:32:30.942Z,29.10
2017-08-25T17:34:59.057Z,29.30
2017-08-25T17:37:27.169Z,29.50
2017-08-25T17:39:55.265Z,29.70
2017-08-25T17:42:23.377Z,29.70
2017-08-25T17:44:51.472Z,29.80
2017-08-25T17:47:19.549Z,30.00
2017-08-25T17:49:47.662Z,30.20
2017-08-25T17:52:15.792Z,30.50
2017-08-25T17:54:43.872Z,30.80
2017-08-25T17:57:11.989Z,30.90
2017-08-25T17:59:43.090Z,31.20
2017-08-25T18:02:22.057Z,31.20
2017-08-25T18:05:02.224Z,31.90
2017-08-25T18:07:35.906Z,32.10
2017-08-25T18:10:09.547Z,32.50
2017-08-25T18:12:38.158Z,32.90
2017-08-25T18:15:06.913Z,33.10
2017-08-25T18:17:37.725Z,33.20
2017-08-25T18:20:06.140Z,33.50
2017-08-25T18:22:36.829Z,34.10
2017-08-25T18:25:21.877Z,35.00
2017-08-25T18:28:03.847Z,35.60
2017-08-25T18:30:32.616Z,35.70
2017-08-25T18:33:04.771Z,36.10
2017-08-25T18:35:32.960Z,35.80
2017-08-25T18:38:01.088Z,36.00
2017-08-25T18:40:30.227Z,36.10
2017-08-25T18:42:59.684Z,36.30
2017-08-25T18:45:29.448Z,36.60
2017-08-25T18:48:08.185Z,36.70
2017-08-25T18:50:37.247Z,37.00
2017-08-25T18:53:06.574Z,36.90
2017-08-25T18:55:45.899Z,37.30
2017-08-25T18:58:19.832Z,37.30
2017-08-25T19:03:57.107Z,37.10
2017-08-25T19:06:37.056Z,36.70
2017-08-25T19:09:06.783Z,37.10
2017-08-25T19:11:36.645Z,37.20
2017-08-25T19:14:05.642Z,37.20
2017-08-25T19:16:34.563Z,37.40
2017-08-25T19:19:02.773Z,37.40
2017-08-25T19:21:30.885Z,38.10
2017-08-25T19:23:59.025Z,39.60
2017-08-25T19:26:27.191Z,38.70
2017-08-25T19:28:55.309Z,36.30
2017-08-25T19:31:23.537Z,34.30
2017-08-25T19:33:51.644Z,34.10
2017-08-25T19:36:19.773Z,34.30
2017-08-25T19:38:48.001Z,33.80
2017-08-25T19:41:16.098Z,33.60
2017-08-25T19:43:44.177Z,33.60
2017-08-25T19:46:13.299Z,33.10
2017-08-25T19:48:41.378Z,33.40
2017-08-25T19:51:09.627Z,33.70
2017-08-25T19:53:37.727Z,34.90
2017-08-25T19:56:05.826Z,36.60
2017-08-25T19:58:33.899Z,38.10
2017-08-25T20:01:02.000Z,39.00
2017-08-25T20:03:30.081Z,39.80
2017-08-25T20:05:58.171Z,40.50
2017-08-25T20:08:26.263Z,41.90
2017-08-25T20:10:54.364Z,44.40
2017-08-25T20:13:22.463Z,47.10
2017-08-25T20:15:50.582Z,50.50
2017-08-25T20:18:18.685Z,49.80
2017-08-25T20:20:46.803Z,52.30
2017-08-25T20:23:14.900Z,51.10
2017-08-25T20:25:42.982Z,52.10
2017-08-25T20:28:11.173Z,52.50
2017-08-25T20:30:39.366Z,52.20
2017-08-25T20:33:07.474Z,52.70
2017-08-25T20:35:36.701Z,53.20
2017-08-25T20:38:04.793Z,52.90
2017-08-25T20:40:32.942Z,52.40
2017-08-25T20:43:12.012Z,54.10
2017-08-25T20:45:40.122Z,53.20
2017-08-25T20:48:08.242Z,55.10
2017-08-25T20:50:37.093Z,55.60
2017-08-25T20:53:05.248Z,55.00
2017-08-25T20:55:34.399Z,55.40
2017-08-25T20:58:02.506Z,55.60
2017-08-25T21:00:31.324Z,56.60
2017-08-25T21:02:59.499Z,60.20
2017-08-25T21:05:27.717Z,62.60
2017-08-25T21:07:55.817Z,61.40
2017-08-25T21:10:23.899Z,60.20
2017-08-25T21:12:52.024Z,59.50
2017-08-25T21:15:20.127Z,58.10
2017-08-25T21:17:48.221Z,58.00
2017-08-25T21:20:16.291Z,57.50
2017-08-25T21:22:44.381Z,58.00
2017-08-25T21:25:12.484Z,58.10
2017-08-25T21:27:40.592Z,57.90
2017-08-25T21:30:08.676Z,59.00
2017-08-25T21:32:36.866Z,60.70
2017-08-25T21:35:04.945Z,60.10
2017-08-25T21:37:33.045Z,59.50
2017-08-25T21:40:01.125Z,60.50
2017-08-25T21:42:29.228Z,60.20
2017-08-25T21:44:57.296Z,60.10
2017-08-25T21:47:25.520Z,59.70
2017-08-25T21:49:53.617Z,61.10
2017-08-25T21:52:21.789Z,60.90
2017-08-25T21:54:50.949Z,58.70
2017-08-25T21:57:20.472Z,61.10
2017-08-25T21:59:50.651Z,60.50
2017-08-25T22:02:19.255Z,59.00
2017-08-25T22:04:52.434Z,59.20
2017-08-25T22:07:22.896Z,59.00
2017-08-25T22:09:53.071Z,57.40
2017-08-25T22:12:23.592Z,57.20
2017-08-25T22:15:15.076Z,56.80
2017-08-25T22:17:45.332Z,56.60
2017-08-25T22:20:14.298Z,56.30
2017-08-25T22:22:42.404Z,56.30
2017-08-25T22:25:10.578Z,56.60
2017-08-25T22:27:38.700Z,58.10
2017-08-25T22:30:06.841Z,57.60
2017-08-25T22:32:34.994Z,57.80
2017-08-25T22:35:03.091Z,58.20
2017-08-25T22:37:31.498Z,58.80
2017-08-25T22:39:59.701Z,58.00
2017-08-25T22:42:27.870Z,57.10
2017-08-25T22:44:56.049Z,58.00
2017-08-25T22:49:57.683Z,61.90
2017-08-25T22:52:26.623Z,60.60
2017-08-25T22:54:54.747Z,61.30
2017-08-25T22:57:24.094Z,61.30
2017-08-25T22:59:58.402Z,61.90
2017-08-25T23:02:39.492Z,62.20
2017-08-25T23:05:13.164Z,62.20
2017-08-25T23:08:11.047Z,61.50
2017-08-25T23:10:39.257Z,61.10
2017-08-25T23:13:08.452Z,60.40
2017-08-25T23:16:06.391Z,61.10
2017-08-25T23:18:34.549Z,60.80
2017-08-25T23:21:02.633Z,61.20
2017-08-25T23:23:30.972Z,60.60
2017-08-25T23:25:59.871Z,61.40
2017-08-25T23:28:28.028Z,61.30
2017-08-25T23:30:56.134Z,62.30
2017-08-25T23:33:24.232Z,61.60
2017-08-25T23:35:52.312Z,62.40
